ドゥシャンベ の空港の天気 - METARとTAF

ドゥシャンベ空港 ( UTDD / DYU ) - タジキスタン ドゥシャンベ
飛行場実況気象(Metar)
観測時間10/01 21:30 TJT (10/01 16:30 UTC)
風向・風速不定 1m/s
視程10km以上
天気現象
なし
気温14℃
湿度59%
気圧1019hPa
METARUTDD 011630Z VRB01MPS 9999 NSC 14/06 Q1019 R09/D NOSIG RMK QFE696/0927
過去の天気等 Google飛行場航空写真 Wunderground天気予報

過去48時間のMETAR

飛行場予報(TAF)
発表時間: 10/01 20:00 TJT (10/01 15:00 UTC)
予報対象時間: 1日21時 TJT ~ 2日9時 TJT
風向・風速不定 2m/s
視程6000m
全天の4割程度の雲 雲底高度 2010m
全天の8割程度の雲 雲底高度 3660m
TAF UTDD 011500Z 0116/0204 VRB02MPS 6000 SCT066 BKN120